sensor_id;sensor_type;location;lat;lon;timestamp;pressure;altitude;pressure_sealevel;temperature;humidity
76551;BME280;68768;53.156;18.164;2024-03-02T00:01:35;100893.12;;;7.93;82.31
76551;BME280;68768;53.156;18.164;2024-03-02T00:04:04;100895.25;;;7.93;82.15
76551;BME280;68768;53.156;18.164;2024-03-02T00:06:30;100894.92;;;7.92;82.14
76551;BME280;68768;53.156;18.164;2024-03-02T00:08:58;100895.80;;;7.92;82.42
76551;BME280;68768;53.156;18.164;2024-03-02T00:11:25;100891.60;;;7.90;82.68
76551;BME280;68768;53.156;18.164;2024-03-02T00:13:54;100892.56;;;7.86;82.67
76551;BME280;68768;53.156;18.164;2024-03-02T00:16:21;100887.14;;;7.84;83.00
76551;BME280;68768;53.156;18.164;2024-03-02T00:18:48;100889.11;;;7.83;82.84
76551;BME280;68768;53.156;18.164;2024-03-02T00:21:14;100890.46;;;7.85;82.70
76551;BME280;68768;53.156;18.164;2024-03-02T00:23:44;100885.73;;;7.84;82.65
76551;BME280;68768;53.156;18.164;2024-03-02T00:26:11;100887.38;;;7.82;82.55
76551;BME280;68768;53.156;18.164;2024-03-02T00:28:39;100883.02;;;7.79;82.71
76551;BME280;68768;53.156;18.164;2024-03-02T00:31:07;100882.01;;;7.77;82.87
76551;BME280;68768;53.156;18.164;2024-03-02T00:33:36;100881.84;;;7.76;82.63
76551;BME280;68768;53.156;18.164;2024-03-02T00:36:06;100881.48;;;7.77;82.69
76551;BME280;68768;53.156;18.164;2024-03-02T00:38:34;100884.31;;;7.76;82.92
76551;BME280;68768;53.156;18.164;2024-03-02T00:41:06;100879.77;;;7.75;82.81
76551;BME280;68768;53.156;18.164;2024-03-02T00:43:44;100880.16;;;7.73;83.15
76551;BME280;68768;53.156;18.164;2024-03-02T00:46:13;100878.09;;;7.71;83.55
76551;BME280;68768;53.156;18.164;2024-03-02T00:48:51;100880.10;;;7.69;83.32
76551;BME280;68768;53.156;18.164;2024-03-02T00:51:20;100880.52;;;7.65;83.56
76551;BME280;68768;53.156;18.164;2024-03-02T00:53:49;100888.66;;;7.64;83.80
76551;BME280;68768;53.156;18.164;2024-03-02T00:56:16;100888.74;;;7.62;83.88
76551;BME280;68768;53.156;18.164;2024-03-02T00:58:43;100887.20;;;7.59;84.11
76551;BME280;68768;53.156;18.164;2024-03-02T01:01:10;100890.40;;;7.59;84.11
76551;BME280;68768;53.156;18.164;2024-03-02T01:03:37;100889.38;;;7.56;84.33
76551;BME280;68768;53.156;18.164;2024-03-02T01:06:05;100879.52;;;7.55;84.14
76551;BME280;68768;53.156;18.164;2024-03-02T01:08:37;100868.95;;;7.54;83.92
76551;BME280;68768;53.156;18.164;2024-03-02T01:11:04;100861.20;;;7.53;84.01
76551;BME280;68768;53.156;18.164;2024-03-02T01:13:32;100859.12;;;7.53;84.28
76551;BME280;68768;53.156;18.164;2024-03-02T01:15:59;100852.19;;;7.54;84.44
76551;BME280;68768;53.156;18.164;2024-03-02T01:18:26;100854.61;;;7.55;84.17
76551;BME280;68768;53.156;18.164;2024-03-02T01:20:54;100852.66;;;7.56;84.15
76551;BME280;68768;53.156;18.164;2024-03-02T01:23:23;100851.59;;;7.56;84.07
76551;BME280;68768;53.156;18.164;2024-03-02T01:25:51;100849.49;;;7.55;84.81
76551;BME280;68768;53.156;18.164;2024-03-02T01:28:19;100849.33;;;7.54;84.11
76551;BME280;68768;53.156;18.164;2024-03-02T01:30:47;100850.95;;;7.54;84.60
76551;BME280;68768;53.156;18.164;2024-03-02T01:33:16;100847.08;;;7.53;84.49
76551;BME280;68768;53.156;18.164;2024-03-02T01:35:43;100847.43;;;7.53;84.33
76551;BME280;68768;53.156;18.164;2024-03-02T01:38:11;100842.99;;;7.54;84.42
76551;BME280;68768;53.156;18.164;2024-03-02T01:40:38;100835.41;;;7.54;84.38
76551;BME280;68768;53.156;18.164;2024-03-02T01:43:05;100826.40;;;7.54;84.19
76551;BME280;68768;53.156;18.164;2024-03-02T01:45:33;100822.95;;;7.57;84.12
76551;BME280;68768;53.156;18.164;2024-03-02T01:48:00;100819.64;;;7.56;83.78
76551;BME280;68768;53.156;18.164;2024-03-02T01:50:34;100819.11;;;7.55;83.75
76551;BME280;68768;53.156;18.164;2024-03-02T01:53:01;100820.20;;;7.54;83.83
76551;BME280;68768;53.156;18.164;2024-03-02T01:55:31;100819.66;;;7.54;83.96
76551;BME280;68768;53.156;18.164;2024-03-02T01:57:58;100820.19;;;7.54;83.88
76551;BME280;68768;53.156;18.164;2024-03-02T02:00:25;100830.09;;;7.54;84.16
76551;BME280;68768;53.156;18.164;2024-03-02T02:02:53;100831.15;;;7.54;84.10
76551;BME280;68768;53.156;18.164;2024-03-02T02:05:20;100827.77;;;7.55;83.97
76551;BME280;68768;53.156;18.164;2024-03-02T02:07:48;100827.79;;;7.54;84.10
76551;BME280;68768;53.156;18.164;2024-03-02T02:10:14;100829.94;;;7.53;84.35
76551;BME280;68768;53.156;18.164;2024-03-02T02:12:42;100824.19;;;7.51;84.38
76551;BME280;68768;53.156;18.164;2024-03-02T02:15:22;100824.56;;;7.50;84.26
76551;BME280;68768;53.156;18.164;2024-03-02T02:17:50;100829.91;;;7.47;84.30
76551;BME280;68768;53.156;18.164;2024-03-02T02:20:17;100829.77;;;7.46;84.48
76551;BME280;68768;53.156;18.164;2024-03-02T02:22:57;100831.23;;;7.43;84.28
76551;BME280;68768;53.156;18.164;2024-03-02T02:25:24;100828.27;;;7.43;84.21
76551;BME280;68768;53.156;18.164;2024-03-02T02:27:51;100828.52;;;7.39;84.07
76551;BME280;68768;53.156;18.164;2024-03-02T02:30:23;100825.02;;;7.38;84.18
76551;BME280;68768;53.156;18.164;2024-03-02T02:32:51;100825.74;;;7.36;84.15
76551;BME280;68768;53.156;18.164;2024-03-02T02:35:18;100822.95;;;7.35;84.45
76551;BME280;68768;53.156;18.164;2024-03-02T02:37:48;100828.98;;;7.33;84.22
76551;BME280;68768;53.156;18.164;2024-03-02T02:40:16;100829.56;;;7.32;84.30
76551;BME280;68768;53.156;18.164;2024-03-02T02:42:43;100824.84;;;7.31;84.66
76551;BME280;68768;53.156;18.164;2024-03-02T02:45:10;100825.56;;;7.29;84.35
76551;BME280;68768;53.156;18.164;2024-03-02T02:47:40;100826.25;;;7.30;84.18
76551;BME280;68768;53.156;18.164;2024-03-02T02:50:08;100827.64;;;7.31;84.39
76551;BME280;68768;53.156;18.164;2024-03-02T02:52:36;100823.75;;;7.31;84.29
76551;BME280;68768;53.156;18.164;2024-03-02T02:55:06;100824.11;;;7.32;84.29
76551;BME280;68768;53.156;18.164;2024-03-02T02:57:34;100826.59;;;7.31;84.68
76551;BME280;68768;53.156;18.164;2024-03-02T03:00:05;100825.75;;;7.29;84.53
76551;BME280;68768;53.156;18.164;2024-03-02T03:02:40;100827.19;;;7.28;84.26
76551;BME280;68768;53.156;18.164;2024-03-02T03:05:09;100824.39;;;7.27;84.42
76551;BME280;68768;53.156;18.164;2024-03-02T03:07:37;100825.30;;;7.25;84.33
76551;BME280;68768;53.156;18.164;2024-03-02T03:10:05;100828.55;;;7.22;84.34
76551;BME280;68768;53.156;18.164;2024-03-02T03:12:34;100830.38;;;7.20;84.42
76551;BME280;68768;53.156;18.164;2024-03-02T03:15:02;100827.10;;;7.16;84.59
76551;BME280;68768;53.156;18.164;2024-03-02T03:17:31;100826.11;;;7.13;84.41
76551;BME280;68768;53.156;18.164;2024-03-02T03:19:58;100830.05;;;7.11;84.48
76551;BME280;68768;53.156;18.164;2024-03-02T03:22:25;100836.44;;;7.10;84.88
76551;BME280;68768;53.156;18.164;2024-03-02T03:24:52;100836.48;;;7.07;84.47
76551;BME280;68768;53.156;18.164;2024-03-02T03:27:19;100830.85;;;7.06;84.47
76551;BME280;68768;53.156;18.164;2024-03-02T03:29:46;100832.44;;;7.06;84.63
76551;BME280;68768;53.156;18.164;2024-03-02T03:32:13;100833.52;;;7.06;84.72
76551;BME280;68768;53.156;18.164;2024-03-02T03:34:40;100827.52;;;7.05;84.55
76551;BME280;68768;53.156;18.164;2024-03-02T03:37:07;100822.22;;;7.05;84.74
76551;BME280;68768;53.156;18.164;2024-03-02T03:39:34;100821.70;;;7.05;84.70
76551;BME280;68768;53.156;18.164;2024-03-02T03:42:03;100821.54;;;7.04;84.81
76551;BME280;68768;53.156;18.164;2024-03-02T03:44:30;100810.96;;;7.03;84.58
76551;BME280;68768;53.156;18.164;2024-03-02T03:46:57;100812.91;;;7.03;84.65
76551;BME280;68768;53.156;18.164;2024-03-02T03:49:23;100816.94;;;7.05;84.57
76551;BME280;68768;53.156;18.164;2024-03-02T03:51:50;100817.80;;;7.05;84.94
76551;BME280;68768;53.156;18.164;2024-03-02T03:54:17;100816.93;;;7.05;84.72
76551;BME280;68768;53.156;18.164;2024-03-02T03:56:44;100810.59;;;7.04;84.73
76551;BME280;68768;53.156;18.164;2024-03-02T03:59:11;100811.66;;;7.03;84.54
76551;BME280;68768;53.156;18.164;2024-03-02T04:01:38;100805.18;;;7.02;84.38
76551;BME280;68768;53.156;18.164;2024-03-02T04:04:05;100803.45;;;7.01;84.50
76551;BME280;68768;53.156;18.164;2024-03-02T04:06:31;100802.55;;;7.01;84.40
76551;BME280;68768;53.156;18.164;2024-03-02T04:08:59;100799.85;;;7.03;84.44
76551;BME280;68768;53.156;18.164;2024-03-02T04:11:25;100802.14;;;7.03;84.68
76551;BME280;68768;53.156;18.164;2024-03-02T04:13:52;100799.88;;;7.02;84.35
76551;BME280;68768;53.156;18.164;2024-03-02T04:16:19;100797.20;;;7.03;84.26
76551;BME280;68768;53.156;18.164;2024-03-02T04:18:46;100801.07;;;7.04;84.50
76551;BME280;68768;53.156;18.164;2024-03-02T04:21:13;100794.73;;;7.03;84.38
76551;BME280;68768;53.156;18.164;2024-03-02T04:23:40;100795.08;;;7.03;84.40
76551;BME280;68768;53.156;18.164;2024-03-02T04:26:07;100794.34;;;7.05;84.35
76551;BME280;68768;53.156;18.164;2024-03-02T04:28:34;100794.70;;;7.04;84.23
76551;BME280;68768;53.156;18.164;2024-03-02T04:31:01;100796.83;;;7.04;84.37
76551;BME280;68768;53.156;18.164;2024-03-02T04:33:27;100803.52;;;7.05;84.64
76551;BME280;68768;53.156;18.164;2024-03-02T04:35:54;100800.50;;;7.06;84.56
76551;BME280;68768;53.156;18.164;2024-03-02T04:38:21;100789.73;;;7.06;84.47
76551;BME280;68768;53.156;18.164;2024-03-02T04:40:48;100784.62;;;7.06;84.26
76551;BME280;68768;53.156;18.164;2024-03-02T04:43:15;100785.42;;;7.10;84.45
76551;BME280;68768;53.156;18.164;2024-03-02T04:45:43;100794.19;;;7.12;84.21
76551;BME280;68768;53.156;18.164;2024-03-02T04:48:10;100797.91;;;7.12;84.21
76551;BME280;68768;53.156;18.164;2024-03-02T04:50:36;100807.83;;;7.11;84.38
76551;BME280;68768;53.156;18.164;2024-03-02T04:53:03;100802.53;;;7.11;84.34
76551;BME280;68768;53.156;18.164;2024-03-02T04:55:30;100813.13;;;7.10;84.27
76551;BME280;68768;53.156;18.164;2024-03-02T04:58:06;100804.65;;;7.11;84.37
76551;BME280;68768;53.156;18.164;2024-03-02T05:00:34;100807.98;;;7.12;84.30
76551;BME280;68768;53.156;18.164;2024-03-02T05:03:02;100809.04;;;7.12;84.29
76551;BME280;68768;53.156;18.164;2024-03-02T05:05:29;100808.09;;;7.13;84.25
76551;BME280;68768;53.156;18.164;2024-03-02T05:07:56;100814.58;;;7.15;84.29
76551;BME280;68768;53.156;18.164;2024-03-02T05:10:23;100814.91;;;7.16;84.33
76551;BME280;68768;53.156;18.164;2024-03-02T05:12:50;100815.24;;;7.17;84.14
76551;BME280;68768;53.156;18.164;2024-03-02T05:15:23;100817.17;;;7.18;84.24
76551;BME280;68768;53.156;18.164;2024-03-02T05:17:50;100821.59;;;7.18;84.22
76551;BME280;68768;53.156;18.164;2024-03-02T05:20:17;100829.15;;;7.19;84.24
76551;BME280;68768;53.156;18.164;2024-03-02T05:22:44;100830.90;;;7.20;84.18
76551;BME280;68768;53.156;18.164;2024-03-02T05:25:11;100835.84;;;7.21;84.20
76551;BME280;68768;53.156;18.164;2024-03-02T05:27:38;100832.31;;;7.20;84.04
76551;BME280;68768;53.156;18.164;2024-03-02T05:30:06;100841.84;;;7.20;84.08
76551;BME280;68768;53.156;18.164;2024-03-02T05:32:33;100839.41;;;7.18;84.17
76551;BME280;68768;53.156;18.164;2024-03-02T05:35:00;100837.85;;;7.17;84.15
76551;BME280;68768;53.156;18.164;2024-03-02T05:37:30;100838.73;;;7.17;84.10
76551;BME280;68768;53.156;18.164;2024-03-02T05:39:57;100836.05;;;7.18;84.20
76551;BME280;68768;53.156;18.164;2024-03-02T05:42:24;100837.64;;;7.18;84.15
76551;BME280;68768;53.156;18.164;2024-03-02T05:44:51;100835.72;;;7.17;84.16
76551;BME280;68768;53.156;18.164;2024-03-02T05:47:18;100838.00;;;7.18;84.17
76551;BME280;68768;53.156;18.164;2024-03-02T05:49:44;100843.48;;;7.17;84.06
76551;BME280;68768;53.156;18.164;2024-03-02T05:52:11;100848.61;;;7.17;84.14
76551;BME280;68768;53.156;18.164;2024-03-02T05:54:39;100850.39;;;7.16;84.12
76551;BME280;68768;53.156;18.164;2024-03-02T05:57:06;100859.19;;;7.17;84.21
76551;BME280;68768;53.156;18.164;2024-03-02T05:59:51;100863.25;;;7.18;84.06
76551;BME280;68768;53.156;18.164;2024-03-02T06:02:18;100863.61;;;7.17;84.09
76551;BME280;68768;53.156;18.164;2024-03-02T06:04:45;100857.23;;;7.18;84.13
76551;BME280;68768;53.156;18.164;2024-03-02T06:07:12;100857.92;;;7.19;84.17
76551;BME280;68768;53.156;18.164;2024-03-02T06:09:40;100866.23;;;7.19;84.14
76551;BME280;68768;53.156;18.164;2024-03-02T06:12:07;100870.98;;;7.20;84.05
76551;BME280;68768;53.156;18.164;2024-03-02T06:14:34;100871.67;;;7.20;84.10
76551;BME280;68768;53.156;18.164;2024-03-02T06:17:01;100863.36;;;7.21;84.05
76551;BME280;68768;53.156;18.164;2024-03-02T06:19:28;100868.30;;;7.21;84.08
76551;BME280;68768;53.156;18.164;2024-03-02T06:21:55;100872.52;;;7.22;84.00
76551;BME280;68768;53.156;18.164;2024-03-02T06:24:22;100869.50;;;7.22;83.93
76551;BME280;68768;53.156;18.164;2024-03-02T06:26:49;100867.39;;;7.22;84.05
76551;BME280;68768;53.156;18.164;2024-03-02T06:29:16;100873.36;;;7.23;83.95
76551;BME280;68768;53.156;18.164;2024-03-02T06:31:43;100875.61;;;7.25;83.98
76551;BME280;68768;53.156;18.164;2024-03-02T06:34:09;100869.09;;;7.24;84.01
76551;BME280;68768;53.156;18.164;2024-03-02T06:36:38;100874.91;;;7.24;84.09
76551;BME280;68768;53.156;18.164;2024-03-02T06:39:06;100872.25;;;7.25;84.04
76551;BME280;68768;53.156;18.164;2024-03-02T06:41:33;100871.54;;;7.26;83.95
76551;BME280;68768;53.156;18.164;2024-03-02T06:44:00;100875.44;;;7.24;83.95
76551;BME280;68768;53.156;18.164;2024-03-02T06:46:27;100874.55;;;7.25;83.94
76551;BME280;68768;53.156;18.164;2024-03-02T06:48:54;100867.31;;;7.25;84.05
76551;BME280;68768;53.156;18.164;2024-03-02T06:51:21;100872.75;;;7.27;83.96
76551;BME280;68768;53.156;18.164;2024-03-02T06:53:48;100870.06;;;7.29;83.94
76551;BME280;68768;53.156;18.164;2024-03-02T06:56:15;100858.53;;;7.32;84.07
76551;BME280;68768;53.156;18.164;2024-03-02T06:58:42;100853.65;;;7.35;83.95
76551;BME280;68768;53.156;18.164;2024-03-02T07:01:09;100853.95;;;7.38;83.78
76551;BME280;68768;53.156;18.164;2024-03-02T07:03:36;100856.38;;;7.41;83.78
76551;BME280;68768;53.156;18.164;2024-03-02T07:06:03;100865.70;;;7.43;83.79
76551;BME280;68768;53.156;18.164;2024-03-02T07:08:31;100875.57;;;7.43;83.81
76551;BME280;68768;53.156;18.164;2024-03-02T07:10:58;100876.92;;;7.46;83.75
76551;BME280;68768;53.156;18.164;2024-03-02T07:13:25;100870.33;;;7.49;83.76
76551;BME280;68768;53.156;18.164;2024-03-02T07:15:52;100873.10;;;7.51;83.72
76551;BME280;68768;53.156;18.164;2024-03-02T07:18:39;100875.98;;;7.56;83.70
76551;BME280;68768;53.156;18.164;2024-03-02T07:21:08;100875.55;;;7.59;83.72
76551;BME280;68768;53.156;18.164;2024-03-02T07:23:35;100873.86;;;7.63;83.48
76551;BME280;68768;53.156;18.164;2024-03-02T07:26:02;100868.68;;;7.66;83.32
76551;BME280;68768;53.156;18.164;2024-03-02T07:28:29;100874.08;;;7.70;83.45
76551;BME280;68768;53.156;18.164;2024-03-02T07:31:02;100882.11;;;7.73;83.49
76551;BME280;68768;53.156;18.164;2024-03-02T07:33:31;100896.81;;;7.79;83.27
76551;BME280;68768;53.156;18.164;2024-03-02T07:35:59;100905.89;;;7.83;83.08
76551;BME280;68768;53.156;18.164;2024-03-02T07:38:28;100900.30;;;7.88;82.96
76551;BME280;68768;53.156;18.164;2024-03-02T07:40:55;100899.77;;;7.95;82.77
76551;BME280;68768;53.156;18.164;2024-03-02T07:43:22;100892.16;;;8.03;83.03
76551;BME280;68768;53.156;18.164;2024-03-02T07:45:49;100891.89;;;8.14;82.88
76551;BME280;68768;53.156;18.164;2024-03-02T07:48:16;100892.31;;;8.25;82.67
76551;BME280;68768;53.156;18.164;2024-03-02T07:50:43;100894.02;;;8.41;82.66
76551;BME280;68768;53.156;18.164;2024-03-02T07:53:11;100889.24;;;8.61;82.06
76551;BME280;68768;53.156;18.164;2024-03-02T07:55:38;100883.30;;;8.84;81.77
76551;BME280;68768;53.156;18.164;2024-03-02T07:58:05;100896.95;;;9.20;81.44
76551;BME280;68768;53.156;18.164;2024-03-02T08:00:33;100888.11;;;9.54;80.20
76551;BME280;68768;53.156;18.164;2024-03-02T08:03:00;100877.85;;;9.81;80.18
76551;BME280;68768;53.156;18.164;2024-03-02T08:05:27;100886.37;;;10.03;78.64
76551;BME280;68768;53.156;18.164;2024-03-02T08:07:54;100880.79;;;10.15;78.72
76551;BME280;68768;53.156;18.164;2024-03-02T08:10:21;100886.80;;;10.27;77.67
76551;BME280;68768;53.156;18.164;2024-03-02T08:12:48;100892.48;;;10.32;77.57
76551;BME280;68768;53.156;18.164;2024-03-02T08:15:15;100893.80;;;10.36;78.69
76551;BME280;68768;53.156;18.164;2024-03-02T08:17:42;100900.14;;;10.47;78.79
76551;BME280;68768;53.156;18.164;2024-03-02T08:20:15;100912.25;;;10.56;78.06
76551;BME280;68768;53.156;18.164;2024-03-02T08:22:42;100916.39;;;10.59;77.89
76551;BME280;68768;53.156;18.164;2024-03-02T08:25:09;100919.92;;;10.65;77.49
76551;BME280;68768;53.156;18.164;2024-03-02T08:27:36;100915.92;;;10.72;77.23
76551;BME280;68768;53.156;18.164;2024-03-02T08:30:03;100913.17;;;10.75;77.56
76551;BME280;68768;53.156;18.164;2024-03-02T08:32:33;100909.33;;;10.73;76.64
76551;BME280;68768;53.156;18.164;2024-03-02T08:35:00;100895.15;;;10.67;75.89
76551;BME280;68768;53.156;18.164;2024-03-02T08:37:27;100896.69;;;10.74;76.16
76551;BME280;68768;53.156;18.164;2024-03-02T08:39:54;100887.50;;;10.87;75.89
76551;BME280;68768;53.156;18.164;2024-03-02T08:42:22;100891.55;;;11.07;76.95
76551;BME280;68768;53.156;18.164;2024-03-02T08:44:49;100897.66;;;11.34;77.16
76551;BME280;68768;53.156;18.164;2024-03-02T08:47:16;100899.11;;;11.60;76.90
76551;BME280;68768;53.156;18.164;2024-03-02T08:49:43;100896.91;;;11.89;76.77
76551;BME280;68768;53.156;18.164;2024-03-02T08:52:10;100897.36;;;12.12;74.63
76551;BME280;68768;53.156;18.164;2024-03-02T08:54:37;100901.13;;;12.21;74.37
76551;BME280;68768;53.156;18.164;2024-03-02T08:57:05;100902.46;;;12.14;75.59
76551;BME280;68768;53.156;18.164;2024-03-02T08:59:32;100913.09;;;11.98;73.76
76551;BME280;68768;53.156;18.164;2024-03-02T09:01:59;100920.14;;;11.77;74.15
76551;BME280;68768;53.156;18.164;2024-03-02T09:04:26;100920.59;;;11.65;74.85
76551;BME280;68768;53.156;18.164;2024-03-02T09:06:53;100917.59;;;11.60;74.71
76551;BME280;68768;53.156;18.164;2024-03-02T09:09:20;100916.13;;;11.66;73.85
76551;BME280;68768;53.156;18.164;2024-03-02T09:11:47;100921.49;;;11.74;73.82
76551;BME280;68768;53.156;18.164;2024-03-02T09:14:14;100920.41;;;11.84;74.10
76551;BME280;68768;53.156;18.164;2024-03-02T09:16:42;100916.44;;;11.94;73.67
76551;BME280;68768;53.156;18.164;2024-03-02T09:19:09;100914.95;;;11.96;74.50
76551;BME280;68768;53.156;18.164;2024-03-02T09:21:36;100915.98;;;11.97;74.02
76551;BME280;68768;53.156;18.164;2024-03-02T09:24:04;100929.69;;;11.97;74.38
76551;BME280;68768;53.156;18.164;2024-03-02T09:26:33;100928.71;;;11.90;72.80
76551;BME280;68768;53.156;18.164;2024-03-02T09:29:00;100928.78;;;11.74;72.77
76551;BME280;68768;53.156;18.164;2024-03-02T09:31:27;100917.82;;;11.63;73.14
76551;BME280;68768;53.156;18.164;2024-03-02T09:33:54;100910.28;;;11.56;73.89
76551;BME280;68768;53.156;18.164;2024-03-02T09:36:22;100910.45;;;11.52;73.68
76551;BME280;68768;53.156;18.164;2024-03-02T09:38:49;100903.59;;;11.50;74.50
76551;BME280;68768;53.156;18.164;2024-03-02T09:41:16;100913.13;;;11.51;74.16
76551;BME280;68768;53.156;18.164;2024-03-02T09:43:43;100916.54;;;11.60;73.79
76551;BME280;68768;53.156;18.164;2024-03-02T09:46:11;100915.23;;;11.66;73.88
76551;BME280;68768;53.156;18.164;2024-03-02T09:48:38;100918.05;;;11.71;73.77
76551;BME280;68768;53.156;18.164;2024-03-02T09:51:05;100915.89;;;11.77;73.74
76551;BME280;68768;53.156;18.164;2024-03-02T09:53:33;100916.42;;;11.86;73.37
76551;BME280;68768;53.156;18.164;2024-03-02T09:56:00;100923.97;;;11.89;73.61
76551;BME280;68768;53.156;18.164;2024-03-02T09:58:28;100919.85;;;11.93;73.33
76551;BME280;68768;53.156;18.164;2024-03-02T10:00:55;100916.23;;;11.91;73.08
76551;BME280;68768;53.156;18.164;2024-03-02T10:03:26;100915.10;;;11.92;73.04
76551;BME280;68768;53.156;18.164;2024-03-02T10:05:56;100924.70;;;11.97;71.74
76551;BME280;68768;53.156;18.164;2024-03-02T10:08:23;100929.95;;;11.99;71.54
76551;BME280;68768;53.156;18.164;2024-03-02T10:10:50;100931.24;;;12.02;71.75
76551;BME280;68768;53.156;18.164;2024-03-02T10:13:18;100925.34;;;11.99;70.97
76551;BME280;68768;53.156;18.164;2024-03-02T10:15:45;100926.15;;;11.92;71.31
76551;BME280;68768;53.156;18.164;2024-03-02T10:18:13;100921.43;;;11.85;72.27
76551;BME280;68768;53.156;18.164;2024-03-02T10:20:40;100912.98;;;11.83;72.58
76551;BME280;68768;53.156;18.164;2024-03-02T10:23:15;100907.40;;;11.85;72.36
76551;BME280;68768;53.156;18.164;2024-03-02T10:25:43;100910.79;;;11.85;71.75
76551;BME280;68768;53.156;18.164;2024-03-02T10:28:11;100908.86;;;11.88;72.43
76551;BME280;68768;53.156;18.164;2024-03-02T10:30:38;100910.95;;;11.98;71.80
76551;BME280;68768;53.156;18.164;2024-03-02T10:33:06;100908.21;;;12.00;71.97
76551;BME280;68768;53.156;18.164;2024-03-02T10:35:33;100908.59;;;11.99;71.24
76551;BME280;68768;53.156;18.164;2024-03-02T10:38:05;100905.25;;;11.94;71.22
76551;BME280;68768;53.156;18.164;2024-03-02T10:40:33;100905.46;;;11.89;71.18
76551;BME280;68768;53.156;18.164;2024-03-02T10:43:01;100893.44;;;11.87;71.86
76551;BME280;68768;53.156;18.164;2024-03-02T10:45:30;100889.88;;;11.92;72.05
76551;BME280;68768;53.156;18.164;2024-03-02T10:47:57;100897.88;;;11.96;71.86
76551;BME280;68768;53.156;18.164;2024-03-02T10:50:24;100901.11;;;11.95;70.81
76551;BME280;68768;53.156;18.164;2024-03-02T10:52:51;100891.27;;;11.92;71.51
76551;BME280;68768;53.156;18.164;2024-03-02T10:55:18;100894.20;;;11.91;71.91
76551;BME280;68768;53.156;18.164;2024-03-02T10:57:51;100891.61;;;11.92;71.35
76551;BME280;68768;53.156;18.164;2024-03-02T11:00:19;100895.62;;;11.94;71.74
76551;BME280;68768;53.156;18.164;2024-03-02T11:02:55;100893.17;;;11.98;71.46
76551;BME280;68768;53.156;18.164;2024-03-02T11:05:27;100890.84;;;12.02;71.26
76551;BME280;68768;53.156;18.164;2024-03-02T11:08:00;100896.48;;;12.04;71.35
76551;BME280;68768;53.156;18.164;2024-03-02T11:10:34;100896.36;;;12.02;71.10
76551;BME280;68768;53.156;18.164;2024-03-02T11:13:05;100884.86;;;12.01;71.39
76551;BME280;68768;53.156;18.164;2024-03-02T11:15:35;100878.11;;;12.01;70.38
76551;BME280;68768;53.156;18.164;2024-03-02T11:18:06;100886.26;;;12.01;70.77
76551;BME280;68768;53.156;18.164;2024-03-02T11:20:39;100880.84;;;12.03;70.90
76551;BME280;68768;53.156;18.164;2024-03-02T11:23:09;100877.80;;;12.03;70.83
76551;BME280;68768;53.156;18.164;2024-03-02T11:25:36;100879.34;;;12.05;70.88
76551;BME280;68768;53.156;18.164;2024-03-02T11:28:06;100875.42;;;12.05;71.04
76551;BME280;68768;53.156;18.164;2024-03-02T11:33:07;100875.37;;;12.07;71.05
76551;BME280;68768;53.156;18.164;2024-03-02T11:35:41;100872.14;;;12.07;70.63
76551;BME280;68768;53.156;18.164;2024-03-02T11:38:15;100873.50;;;12.05;69.92
76551;BME280;68768;53.156;18.164;2024-03-02T11:40:42;100872.23;;;12.05;70.69
76551;BME280;68768;53.156;18.164;2024-03-02T11:43:09;100871.73;;;12.09;70.44
76551;BME280;68768;53.156;18.164;2024-03-02T11:45:37;100871.88;;;12.13;71.06
76551;BME280;68768;53.156;18.164;2024-03-02T11:48:11;100873.28;;;12.18;70.37
76551;BME280;68768;53.156;18.164;2024-03-02T11:50:48;100865.48;;;12.18;70.50
76551;BME280;68768;53.156;18.164;2024-03-02T11:53:17;100864.58;;;12.18;70.71
76551;BME280;68768;53.156;18.164;2024-03-02T11:55:45;100862.45;;;12.22;70.73
76551;BME280;68768;53.156;18.164;2024-03-02T11:58:14;100865.48;;;12.26;70.61
76551;BME280;68768;53.156;18.164;2024-03-02T12:00:41;100864.55;;;12.31;70.56
76551;BME280;68768;53.156;18.164;2024-03-02T12:03:09;100862.09;;;12.34;70.31
76551;BME280;68768;53.156;18.164;2024-03-02T12:05:39;100864.11;;;12.41;70.44
76551;BME280;68768;53.156;18.164;2024-03-02T12:08:06;100862.52;;;12.44;69.86
76551;BME280;68768;53.156;18.164;2024-03-02T12:10:35;100860.45;;;12.47;70.48
76551;BME280;68768;53.156;18.164;2024-03-02T12:13:04;100858.13;;;12.51;70.38
76551;BME280;68768;53.156;18.164;2024-03-02T12:15:35;100859.86;;;12.57;70.21
76551;BME280;68768;53.156;18.164;2024-03-02T12:18:06;100859.79;;;12.59;69.46
76551;BME280;68768;53.156;18.164;2024-03-02T12:20:33;100864.46;;;12.58;69.67
76551;BME280;68768;53.156;18.164;2024-03-02T12:23:04;100864.30;;;12.57;69.90
76551;BME280;68768;53.156;18.164;2024-03-02T12:25:31;100864.69;;;12.57;69.84
76551;BME280;68768;53.156;18.164;2024-03-02T12:28:00;100863.70;;;12.54;69.79
76551;BME280;68768;53.156;18.164;2024-03-02T12:30:31;100857.27;;;12.51;69.40
76551;BME280;68768;53.156;18.164;2024-03-02T12:33:02;100855.00;;;12.50;70.12
76551;BME280;68768;53.156;18.164;2024-03-02T12:35:29;100853.48;;;12.48;70.42
76551;BME280;68768;53.156;18.164;2024-03-02T12:37:56;100851.04;;;12.46;70.53
76551;BME280;68768;53.156;18.164;2024-03-02T12:40:23;100849.38;;;12.44;70.74
76551;BME280;68768;53.156;18.164;2024-03-02T12:42:50;100845.05;;;12.37;70.61
76551;BME280;68768;53.156;18.164;2024-03-02T12:45:17;100848.80;;;12.29;70.89
76551;BME280;68768;53.156;18.164;2024-03-02T12:47:53;100848.19;;;12.18;71.05
76551;BME280;68768;53.156;18.164;2024-03-02T12:50:21;100852.02;;;12.08;71.29
76551;BME280;68768;53.156;18.164;2024-03-02T12:52:54;100852.09;;;12.02;71.33